LEBB Airport Information

Runway Information
Runway 10 Length 6562 ft width 148 ft
Elevation 116 ft Threshold 0 ft Heading 97
Runway 28 Length 6562 ft Width 148 ft
Elevation 129 ft Threshold 0 ft Heading 277
Runway 12 Length 8530 ft width 148 ft
Elevation 119 ft Threshold 0 ft Heading 117
Runway 30 Length 8530 ft Width 148 ft
Elevation 128 ft Threshold 1509 ft Heading 297
Airport Frequencies
Type APP Name APP Frequency 120.7 MHZ
Type ATIS Name ATIS Frequency 118.825 MHZ
Type GND Name GND Frequency 121.7 MHZ
Type TWR Name TWR Frequency 118.5 MHZ
Airport Navaids
Type VOR-DME Name Bilbao Frequency 115900 KHZ
Airport Weather Information & NOTAM
ADDS - METARS form results

(2016 UTC 22 July 2018)
 
METAR text: LEBB 222000Z 33004KT 9999 FEW025 21/18 Q1018 NOSIG
Conditions at: LEBB (BILBAO/SONDICA , ES) observed 2000 UTC 22 July 2018
Temperature: 21.0°C (70°F)
Dewpoint: 18.0°C (64°F) [RH = 83%]
Pressure (altimeter): 30.06 inches Hg (1018.0 mb)
Winds: from the NNW (330 degrees) at 5 MPH (4 knots; 2.1 m/s)
Visibility: 6 or more miles (10+ km)
Ceiling: at least 12,000 feet AGL
Clouds: few clouds at 2500 feet AGL
Weather: no significant weather observed at this time

METAR text: LEBB 221930Z 34003KT 9999 FEW026 22/18 Q1018 NOSIG
Conditions at: LEBB (BILBAO/SONDICA , ES) observed 1930 UTC 22 July 2018
Temperature: 22.0°C (72°F)
Dewpoint: 18.0°C (64°F) [RH = 78%]
Pressure (altimeter): 30.06 inches Hg (1018.0 mb)
Winds: from the NNW (340 degrees) at 3 MPH (3 knots; 1.6 m/s)
Visibility: 6 or more miles (10+ km)
Ceiling: at least 12,000 feet AGL
Clouds: few clouds at 2600 feet AGL
Weather: no significant weather observed at this time